CDT,Max TemperatureF,Mean TemperatureF,Min TemperatureF,Max Dew PointF,MeanDew PointF,Min DewpointF,Max Humidity, Mean Humidity, Min Humidity, Max Sea Level PressureIn, Mean Sea Level PressureIn, Min Sea Level PressureIn, Max VisibilityMiles, Mean VisibilityMiles, Min VisibilityMiles, Max Wind SpeedMPH, Mean Wind SpeedMPH, Max Gust SpeedMPH,PrecipitationIn, CloudCover, Events, WindDirDegrees
2013-4-1,50,36,21,27,23,17,87,62,38,30.16,30.12,30.06,10,10,10,15,7,21,0.00,1,Thunderstorm,154
2013-4-2,52,40,29,32,29,26,92,69,44,30.13,30.09,30.07,10,10,10,15,7,20,0.00,5,,165
2013-4-3,63,46,28,34,31,21,99,66,20,30.12,30.07,30.00,10,9,0,15,8,17,0.00,2,Fog,200
2013-4-4,67,50,32,35,31,27,90,49,23,30.14,30.07,29.98,10,10,10,21,11,28,0.00,2,,314
2013-4-5,70,57,44,35,28,19,62,37,15,30.00,29.83,29.68,10,10,10,25,11,39,0.00,3,Rain,251
2013-4-6,64,50,37,39,26,16,83,41,16,29.90,29.86,29.79,10,10,10,23,14,33,0.00,2,,295
2013-4-7,63,52,40,41,31,18,93,49,18,29.86,29.75,29.66,10,10,7,31,9,41,0.00,5,Rain,276
2013-4-8,63,43,22,42,32,20,96,68,27,29.74,29.64,29.53,10,9,1,34,13,45,0.34,5,Rain-Snow-Thunderstorm,350
2013-4-9,21,16,11,19,10,7,91,86,81,30.14,29.99,29.76,2,1,0,38,28,45,0.00,8,Snow-Thunderstorm,354
2013-4-10,22,14,7,15,11,4,88,80,68,30.11,30.01,29.88,10,8,1,24,15,30,0.00,4,Snow,335
2013-4-11,41,24,7,32,21,4,92,81,68,29.87,29.76,29.69,10,9,2,24,10,31,0.00,2,Rain-Snow,308
2013-4-12,41,34,28,36,31,27,95,85,66,29.99,29.91,29.85,10,10,1,23,9,28,0.03,5,Rain-Snow,297
2013-4-13,54,42,29,41,34,28,99,77,50,29.97,29.65,29.44,10,9,0,20,8,21,0.00,5,Fog-Rain,176
2013-4-14,45,38,30,40,21,11,88,51,26,29.72,29.57,29.43,10,10,3,46,23,58,0.13,3,Rain,291
2013-4-15,30,27,24,25,23,20,94,86,72,30.00,29.84,29.69,10,4,0,18,8,26,0.02,7,Snow,13
2013-4-16,29,26,24,28,26,23,96,94,90,30.01,29.97,29.92,5,2,0,28,12,32,0.07,8,Fog-Snow,109
2013-4-17,30,26,21,29,24,19,96,92,86,30.08,29.99,29.94,10,3,0,21,13,25,0.01,8,Snow,43
2013-4-18,28,22,16,19,16,11,91,78,62,30.08,30.04,30.02,10,9,2,28,16,36,0.00,3,Snow,321
2013-4-19,49,35,21,33,25,14,79,66,46,30.05,29.98,29.92,10,10,10,23,16,32,0.00,2,,283
2013-4-20,56,44,32,39,33,29,88,69,41,29.98,29.92,29.88,10,10,10,16,7,,0.00,6,Rain,246
2013-4-21,57,46,34,40,34,28,88,64,32,30.05,30.01,29.96,10,10,5,20,10,31,0.00,2,Rain,295
2013-4-22,39,32,23,38,28,19,96,88,77,30.28,30.07,29.90,10,8,1,29,12,37,0.00,7,Rain-Snow,21
2013-4-23,40,30,19,23,16,12,91,64,32,30.27,30.16,30.07,10,10,7,14,8,21,0.00,5,Snow,337
2013-4-24,51,37,23,25,18,6,87,51,22,30.17,30.12,30.06,10,10,10,22,11,31,0.00,2,,298
2013-4-25,67,46,26,29,17,4,81,42,9,30.17,30.02,29.89,10,10,10,14,7,21,0.00,0,,234
2013-4-26,68,50,32,26,20,13,68,36,12,30.20,30.12,29.96,10,10,10,16,8,24,0.00,0,,353
2013-4-27,75,54,34,29,21,14,67,31,10,30.21,30.09,29.98,10,10,10,18,9,28,0.00,0,,287
2013-4-28,76,60,43,33,27,22,53,29,14,29.98,29.91,29.85,10,10,10,25,13,31,0.00,2,,299
2013-4-29,79,59,39,41,29,16,80,35,9,29.94,29.75,29.59,10,10,10,22,13,33,0.00,2,,241
2013-4-30,60,48,35,40,33,24,95,64,25,30.02,29.81,29.62,10,9,3,32,12,36,0.20,4,Rain,15